sensor_id;sensor_type;location;lat;lon;timestamp;temperature;humidity
31725;DHT22;18306;40.960;14.836;2023-06-24T00:02:27;26.90;99.90
31725;DHT22;18306;40.960;14.836;2023-06-24T00:04:54;26.80;99.90
31725;DHT22;18306;40.960;14.836;2023-06-24T00:07:21;26.60;99.90
31725;DHT22;18306;40.960;14.836;2023-06-24T00:09:49;26.50;99.90
31725;DHT22;18306;40.960;14.836;2023-06-24T00:12:16;25.90;99.90
31725;DHT22;18306;40.960;14.836;2023-06-24T00:14:47;25.80;99.90
31725;DHT22;18306;40.960;14.836;2023-06-24T00:17:14;25.70;99.90
31725;DHT22;18306;40.960;14.836;2023-06-24T00:19:42;25.70;99.90
31725;DHT22;18306;40.960;14.836;2023-06-24T00:22:10;25.70;99.90
31725;DHT22;18306;40.960;14.836;2023-06-24T00:24:37;25.80;99.90
31725;DHT22;18306;40.960;14.836;2023-06-24T00:27:06;25.90;99.90
31725;DHT22;18306;40.960;14.836;2023-06-24T00:29:33;26.00;99.90
31725;DHT22;18306;40.960;14.836;2023-06-24T00:32:01;26.00;99.90
31725;DHT22;18306;40.960;14.836;2023-06-24T00:34:29;25.90;99.90
31725;DHT22;18306;40.960;14.836;2023-06-24T00:36:56;26.00;99.90
31725;DHT22;18306;40.960;14.836;2023-06-24T00:43:33;26.00;99.90
31725;DHT22;18306;40.960;14.836;2023-06-24T00:46:02;26.00;99.90
31725;DHT22;18306;40.960;14.836;2023-06-24T00:48:29;26.00;99.90
31725;DHT22;18306;40.960;14.836;2023-06-24T00:50:58;26.00;99.90
31725;DHT22;18306;40.960;14.836;2023-06-24T00:53:27;25.90;99.90
31725;DHT22;18306;40.960;14.836;2023-06-24T00:55:56;26.00;99.90
31725;DHT22;18306;40.960;14.836;2023-06-24T00:58:32;26.00;99.90
31725;DHT22;18306;40.960;14.836;2023-06-24T01:01:01;26.10;99.90
31725;DHT22;18306;40.960;14.836;2023-06-24T01:03:29;26.00;99.90
31725;DHT22;18306;40.960;14.836;2023-06-24T01:05:56;25.90;99.90
31725;DHT22;18306;40.960;14.836;2023-06-24T01:08:24;25.80;99.90
31725;DHT22;18306;40.960;14.836;2023-06-24T01:10:52;25.70;99.90
31725;DHT22;18306;40.960;14.836;2023-06-24T01:13:19;25.60;99.90
31725;DHT22;18306;40.960;14.836;2023-06-24T01:15:48;25.60;99.90
31725;DHT22;18306;40.960;14.836;2023-06-24T01:18:46;25.60;99.90
31725;DHT22;18306;40.960;14.836;2023-06-24T01:21:47;25.60;99.90
31725;DHT22;18306;40.960;14.836;2023-06-24T01:30:08;25.60;99.90
31725;DHT22;18306;40.960;14.836;2023-06-24T01:32:47;25.50;99.90
31725;DHT22;18306;40.960;14.836;2023-06-24T01:35:20;25.40;99.90
31725;DHT22;18306;40.960;14.836;2023-06-24T01:37:51;25.40;99.90
31725;DHT22;18306;40.960;14.836;2023-06-24T01:40:20;25.20;99.90
31725;DHT22;18306;40.960;14.836;2023-06-24T01:42:50;25.20;99.90
31725;DHT22;18306;40.960;14.836;2023-06-24T01:45:32;25.10;99.90
31725;DHT22;18306;40.960;14.836;2023-06-24T01:48:13;25.20;99.90
31725;DHT22;18306;40.960;14.836;2023-06-24T01:50:53;25.20;99.90
31725;DHT22;18306;40.960;14.836;2023-06-24T01:53:22;25.00;99.90
31725;DHT22;18306;40.960;14.836;2023-06-24T01:55:51;24.80;99.90
31725;DHT22;18306;40.960;14.836;2023-06-24T01:58:21;24.80;99.90
31725;DHT22;18306;40.960;14.836;2023-06-24T02:00:50;24.80;99.90
31725;DHT22;18306;40.960;14.836;2023-06-24T02:03:19;24.80;99.90
31725;DHT22;18306;40.960;14.836;2023-06-24T02:05:48;24.80;99.90
31725;DHT22;18306;40.960;14.836;2023-06-24T02:08:16;24.80;99.90
31725;DHT22;18306;40.960;14.836;2023-06-24T02:10:45;24.80;99.90
31725;DHT22;18306;40.960;14.836;2023-06-24T02:13:14;24.80;99.90
31725;DHT22;18306;40.960;14.836;2023-06-24T02:15:46;24.80;99.90
31725;DHT22;18306;40.960;14.836;2023-06-24T02:18:15;24.80;99.90
31725;DHT22;18306;40.960;14.836;2023-06-24T02:20:43;24.70;99.90
31725;DHT22;18306;40.960;14.836;2023-06-24T02:23:11;24.70;99.90
31725;DHT22;18306;40.960;14.836;2023-06-24T02:25:40;24.70;99.90
31725;DHT22;18306;40.960;14.836;2023-06-24T02:28:08;24.70;99.90
31725;DHT22;18306;40.960;14.836;2023-06-24T02:30:37;24.60;99.90
31725;DHT22;18306;40.960;14.836;2023-06-24T02:33:04;24.60;99.90
31725;DHT22;18306;40.960;14.836;2023-06-24T02:35:31;24.60;99.90
31725;DHT22;18306;40.960;14.836;2023-06-24T02:37:58;24.50;99.90
31725;DHT22;18306;40.960;14.836;2023-06-24T02:40:26;24.50;99.90
31725;DHT22;18306;40.960;14.836;2023-06-24T02:42:53;24.50;99.90
31725;DHT22;18306;40.960;14.836;2023-06-24T02:45:21;24.40;99.90
31725;DHT22;18306;40.960;14.836;2023-06-24T02:47:49;24.40;99.90
31725;DHT22;18306;40.960;14.836;2023-06-24T02:50:17;24.30;99.90
31725;DHT22;18306;40.960;14.836;2023-06-24T02:52:45;24.30;99.90
31725;DHT22;18306;40.960;14.836;2023-06-24T02:55:14;24.20;99.90
31725;DHT22;18306;40.960;14.836;2023-06-24T02:57:42;24.20;99.90
31725;DHT22;18306;40.960;14.836;2023-06-24T03:00:26;24.10;99.90
31725;DHT22;18306;40.960;14.836;2023-06-24T03:03:16;24.10;99.90
31725;DHT22;18306;40.960;14.836;2023-06-24T03:05:48;24.10;99.90
31725;DHT22;18306;40.960;14.836;2023-06-24T03:08:18;24.10;99.90
31725;DHT22;18306;40.960;14.836;2023-06-24T03:10:47;24.10;99.90
31725;DHT22;18306;40.960;14.836;2023-06-24T03:13:19;24.10;99.90
31725;DHT22;18306;40.960;14.836;2023-06-24T03:15:52;24.10;99.90
31725;DHT22;18306;40.960;14.836;2023-06-24T03:18:19;24.10;99.90
31725;DHT22;18306;40.960;14.836;2023-06-24T03:20:48;24.10;99.90
31725;DHT22;18306;40.960;14.836;2023-06-24T03:23:20;24.00;99.90
31725;DHT22;18306;40.960;14.836;2023-06-24T03:25:47;24.10;99.90
31725;DHT22;18306;40.960;14.836;2023-06-24T03:28:18;24.10;99.90
31725;DHT22;18306;40.960;14.836;2023-06-24T03:30:58;24.00;99.90
31725;DHT22;18306;40.960;14.836;2023-06-24T03:33:25;24.00;99.90
31725;DHT22;18306;40.960;14.836;2023-06-24T03:35:54;24.10;99.90
31725;DHT22;18306;40.960;14.836;2023-06-24T03:38:26;24.10;99.90
31725;DHT22;18306;40.960;14.836;2023-06-24T03:40:54;24.10;99.90
31725;DHT22;18306;40.960;14.836;2023-06-24T03:43:22;24.10;99.90
31725;DHT22;18306;40.960;14.836;2023-06-24T03:45:49;24.10;99.90
31725;DHT22;18306;40.960;14.836;2023-06-24T03:48:17;24.10;99.90
31725;DHT22;18306;40.960;14.836;2023-06-24T03:50:43;24.10;99.90
31725;DHT22;18306;40.960;14.836;2023-06-24T03:53:11;24.10;99.90
31725;DHT22;18306;40.960;14.836;2023-06-24T03:55:38;24.10;99.90
31725;DHT22;18306;40.960;14.836;2023-06-24T03:58:05;24.10;99.90
31725;DHT22;18306;40.960;14.836;2023-06-24T04:00:33;24.10;99.90
31725;DHT22;18306;40.960;14.836;2023-06-24T04:03:00;24.10;99.90
31725;DHT22;18306;40.960;14.836;2023-06-24T04:05:28;24.20;99.90
31725;DHT22;18306;40.960;14.836;2023-06-24T04:07:55;24.20;99.90
31725;DHT22;18306;40.960;14.836;2023-06-24T04:10:22;24.20;99.90
31725;DHT22;18306;40.960;14.836;2023-06-24T04:12:49;24.20;99.90
31725;DHT22;18306;40.960;14.836;2023-06-24T04:15:17;24.20;99.90
31725;DHT22;18306;40.960;14.836;2023-06-24T04:17:44;24.30;99.90
31725;DHT22;18306;40.960;14.836;2023-06-24T04:20:11;24.30;99.90
31725;DHT22;18306;40.960;14.836;2023-06-24T04:22:41;24.20;99.90
31725;DHT22;18306;40.960;14.836;2023-06-24T04:25:08;24.30;99.90
31725;DHT22;18306;40.960;14.836;2023-06-24T04:27:36;24.30;99.90
31725;DHT22;18306;40.960;14.836;2023-06-24T04:30:05;24.30;99.90
31725;DHT22;18306;40.960;14.836;2023-06-24T04:32:32;24.30;99.90
31725;DHT22;18306;40.960;14.836;2023-06-24T04:35:00;24.40;99.90
31725;DHT22;18306;40.960;14.836;2023-06-24T04:37:31;24.40;99.90
31725;DHT22;18306;40.960;14.836;2023-06-24T04:39:59;24.40;99.90
31725;DHT22;18306;40.960;14.836;2023-06-24T04:42:26;24.40;99.90
31725;DHT22;18306;40.960;14.836;2023-06-24T04:44:53;24.40;99.90
31725;DHT22;18306;40.960;14.836;2023-06-24T04:47:20;24.50;99.90
31725;DHT22;18306;40.960;14.836;2023-06-24T04:49:47;24.60;99.90
31725;DHT22;18306;40.960;14.836;2023-06-24T04:52:15;24.60;99.90
31725;DHT22;18306;40.960;14.836;2023-06-24T04:54:42;24.70;99.90
31725;DHT22;18306;40.960;14.836;2023-06-24T04:57:14;24.70;99.90
31725;DHT22;18306;40.960;14.836;2023-06-24T04:59:49;24.80;99.90
31725;DHT22;18306;40.960;14.836;2023-06-24T05:02:16;24.80;99.90
31725;DHT22;18306;40.960;14.836;2023-06-24T05:04:43;25.00;99.90
31725;DHT22;18306;40.960;14.836;2023-06-24T05:07:10;25.00;99.90
31725;DHT22;18306;40.960;14.836;2023-06-24T05:09:37;25.20;99.90
31725;DHT22;18306;40.960;14.836;2023-06-24T05:12:05;25.20;99.90
31725;DHT22;18306;40.960;14.836;2023-06-24T05:14:36;25.40;99.90
31725;DHT22;18306;40.960;14.836;2023-06-24T05:17:03;25.40;99.90
31725;DHT22;18306;40.960;14.836;2023-06-24T05:19:31;25.40;99.90
31725;DHT22;18306;40.960;14.836;2023-06-24T05:21:58;25.40;99.90
31725;DHT22;18306;40.960;14.836;2023-06-24T05:24:25;25.50;99.90
31725;DHT22;18306;40.960;14.836;2023-06-24T05:26:53;25.60;99.90
31725;DHT22;18306;40.960;14.836;2023-06-24T05:29:20;25.60;99.90
31725;DHT22;18306;40.960;14.836;2023-06-24T05:31:47;25.60;99.90
31725;DHT22;18306;40.960;14.836;2023-06-24T05:34:14;25.60;99.90
31725;DHT22;18306;40.960;14.836;2023-06-24T05:36:41;25.80;99.90
31725;DHT22;18306;40.960;14.836;2023-06-24T05:39:08;25.90;99.90
31725;DHT22;18306;40.960;14.836;2023-06-24T05:41:36;26.00;99.90
31725;DHT22;18306;40.960;14.836;2023-06-24T05:44:07;26.20;99.90
31725;DHT22;18306;40.960;14.836;2023-06-24T05:46:36;26.30;99.90
31725;DHT22;18306;40.960;14.836;2023-06-24T05:49:03;26.40;99.90
31725;DHT22;18306;40.960;14.836;2023-06-24T05:51:31;26.60;99.90
31725;DHT22;18306;40.960;14.836;2023-06-24T05:53:59;26.70;99.90
31725;DHT22;18306;40.960;14.836;2023-06-24T05:56:26;26.70;99.90
31725;DHT22;18306;40.960;14.836;2023-06-24T05:58:53;26.90;99.90
31725;DHT22;18306;40.960;14.836;2023-06-24T06:01:20;27.00;99.90
31725;DHT22;18306;40.960;14.836;2023-06-24T06:03:47;27.20;99.90
31725;DHT22;18306;40.960;14.836;2023-06-24T06:06:14;27.40;99.90
31725;DHT22;18306;40.960;14.836;2023-06-24T06:08:41;27.50;99.90
31725;DHT22;18306;40.960;14.836;2023-06-24T06:11:08;27.60;99.90
31725;DHT22;18306;40.960;14.836;2023-06-24T06:13:35;27.60;99.90
31725;DHT22;18306;40.960;14.836;2023-06-24T06:16:03;27.70;99.90
31725;DHT22;18306;40.960;14.836;2023-06-24T06:18:30;27.70;99.90
31725;DHT22;18306;40.960;14.836;2023-06-24T06:20:57;27.70;99.90
31725;DHT22;18306;40.960;14.836;2023-06-24T06:23:24;27.60;99.90
31725;DHT22;18306;40.960;14.836;2023-06-24T06:25:52;27.40;99.90
31725;DHT22;18306;40.960;14.836;2023-06-24T06:28:19;27.50;99.90
31725;DHT22;18306;40.960;14.836;2023-06-24T06:30:46;27.60;99.90
31725;DHT22;18306;40.960;14.836;2023-06-24T06:33:13;27.70;99.90
31725;DHT22;18306;40.960;14.836;2023-06-24T06:35:40;27.70;99.90
31725;DHT22;18306;40.960;14.836;2023-06-24T06:38:07;27.70;99.90
31725;DHT22;18306;40.960;14.836;2023-06-24T06:40:34;27.80;99.90
31725;DHT22;18306;40.960;14.836;2023-06-24T06:43:02;28.00;99.90
31725;DHT22;18306;40.960;14.836;2023-06-24T06:45:29;28.00;99.90
31725;DHT22;18306;40.960;14.836;2023-06-24T06:47:56;27.90;99.90
31725;DHT22;18306;40.960;14.836;2023-06-24T06:50:23;28.10;99.90
31725;DHT22;18306;40.960;14.836;2023-06-24T06:52:50;28.20;99.90
31725;DHT22;18306;40.960;14.836;2023-06-24T06:55:17;28.20;99.90
31725;DHT22;18306;40.960;14.836;2023-06-24T06:57:44;28.40;99.90
31725;DHT22;18306;40.960;14.836;2023-06-24T07:00:11;28.50;99.90
31725;DHT22;18306;40.960;14.836;2023-06-24T07:02:38;28.60;99.90
31725;DHT22;18306;40.960;14.836;2023-06-24T07:05:06;28.70;99.90
31725;DHT22;18306;40.960;14.836;2023-06-24T07:07:33;28.70;99.90
31725;DHT22;18306;40.960;14.836;2023-06-24T07:10:00;28.70;99.90
31725;DHT22;18306;40.960;14.836;2023-06-24T07:12:27;28.70;99.90
31725;DHT22;18306;40.960;14.836;2023-06-24T07:14:54;28.80;99.90
31725;DHT22;18306;40.960;14.836;2023-06-24T07:17:21;28.80;99.90
31725;DHT22;18306;40.960;14.836;2023-06-24T07:19:48;28.70;99.90
31725;DHT22;18306;40.960;14.836;2023-06-24T07:22:15;28.70;99.90
31725;DHT22;18306;40.960;14.836;2023-06-24T07:24:42;28.80;99.90
31725;DHT22;18306;40.960;14.836;2023-06-24T07:27:09;28.80;99.90
31725;DHT22;18306;40.960;14.836;2023-06-24T07:29:36;28.90;99.90
31725;DHT22;18306;40.960;14.836;2023-06-24T07:32:04;29.00;99.90
31725;DHT22;18306;40.960;14.836;2023-06-24T07:34:31;29.00;99.90
31725;DHT22;18306;40.960;14.836;2023-06-24T07:36:58;29.20;99.90
31725;DHT22;18306;40.960;14.836;2023-06-24T07:39:25;29.50;99.90
31725;DHT22;18306;40.960;14.836;2023-06-24T07:41:52;29.60;99.90
31725;DHT22;18306;40.960;14.836;2023-06-24T07:44:19;29.60;99.90
31725;DHT22;18306;40.960;14.836;2023-06-24T07:46:46;29.60;99.90
31725;DHT22;18306;40.960;14.836;2023-06-24T07:49:15;29.50;99.90
31725;DHT22;18306;40.960;14.836;2023-06-24T07:51:42;29.80;99.90
31725;DHT22;18306;40.960;14.836;2023-06-24T07:54:11;30.00;99.90
31725;DHT22;18306;40.960;14.836;2023-06-24T07:56:38;30.20;99.90
31725;DHT22;18306;40.960;14.836;2023-06-24T07:59:08;30.40;99.50
31725;DHT22;18306;40.960;14.836;2023-06-24T08:01:35;30.60;99.40
31725;DHT22;18306;40.960;14.836;2023-06-24T08:04:02;30.80;99.00
31725;DHT22;18306;40.960;14.836;2023-06-24T08:06:29;31.00;98.70
31725;DHT22;18306;40.960;14.836;2023-06-24T08:08:56;31.10;98.50
31725;DHT22;18306;40.960;14.836;2023-06-24T08:11:23;31.20;97.90
31725;DHT22;18306;40.960;14.836;2023-06-24T08:13:50;31.10;97.80
31725;DHT22;18306;40.960;14.836;2023-06-24T08:16:17;31.10;98.10
31725;DHT22;18306;40.960;14.836;2023-06-24T08:18:46;31.00;97.50
31725;DHT22;18306;40.960;14.836;2023-06-24T08:21:14;31.10;96.90
31725;DHT22;18306;40.960;14.836;2023-06-24T08:23:41;31.10;97.10
31725;DHT22;18306;40.960;14.836;2023-06-24T08:26:08;31.10;97.50
31725;DHT22;18306;40.960;14.836;2023-06-24T08:28:35;31.20;97.80
31725;DHT22;18306;40.960;14.836;2023-06-24T08:31:02;31.20;97.30
31725;DHT22;18306;40.960;14.836;2023-06-24T08:33:29;31.30;97.40
31725;DHT22;18306;40.960;14.836;2023-06-24T08:35:56;31.40;97.20
31725;DHT22;18306;40.960;14.836;2023-06-24T08:38:23;31.50;97.00
31725;DHT22;18306;40.960;14.836;2023-06-24T08:40:52;31.60;96.70
31725;DHT22;18306;40.960;14.836;2023-06-24T08:43:19;31.70;96.20
31725;DHT22;18306;40.960;14.836;2023-06-24T08:45:47;31.70;95.80
31725;DHT22;18306;40.960;14.836;2023-06-24T08:48:15;31.70;96.00
31725;DHT22;18306;40.960;14.836;2023-06-24T08:50:44;31.70;96.60
31725;DHT22;18306;40.960;14.836;2023-06-24T08:53:14;31.50;96.90
31725;DHT22;18306;40.960;14.836;2023-06-24T08:55:43;31.50;96.70
31725;DHT22;18306;40.960;14.836;2023-06-24T08:58:12;31.50;97.10
31725;DHT22;18306;40.960;14.836;2023-06-24T09:00:39;31.50;96.00
31725;DHT22;18306;40.960;14.836;2023-06-24T09:03:08;31.60;96.40
31725;DHT22;18306;40.960;14.836;2023-06-24T09:05:35;31.70;96.50
31725;DHT22;18306;40.960;14.836;2023-06-24T09:08:02;31.60;96.50
31725;DHT22;18306;40.960;14.836;2023-06-24T09:10:34;31.50;96.40
31725;DHT22;18306;40.960;14.836;2023-06-24T09:13:02;31.40;96.30
31725;DHT22;18306;40.960;14.836;2023-06-24T09:15:31;31.50;95.80
31725;DHT22;18306;40.960;14.836;2023-06-24T09:17:58;31.60;96.10
31725;DHT22;18306;40.960;14.836;2023-06-24T09:20:29;31.60;95.20
31725;DHT22;18306;40.960;14.836;2023-06-24T09:23:01;31.60;95.80
31725;DHT22;18306;40.960;14.836;2023-06-24T09:25:29;31.60;95.20
31725;DHT22;18306;40.960;14.836;2023-06-24T09:28:03;31.60;95.90
31725;DHT22;18306;40.960;14.836;2023-06-24T09:30:30;31.50;95.50
31725;DHT22;18306;40.960;14.836;2023-06-24T09:32:57;31.30;95.20
31725;DHT22;18306;40.960;14.836;2023-06-24T09:35:25;31.40;95.00
31725;DHT22;18306;40.960;14.836;2023-06-24T09:37:56;31.40;95.70
31725;DHT22;18306;40.960;14.836;2023-06-24T09:40:25;31.50;95.60
31725;DHT22;18306;40.960;14.836;2023-06-24T09:42:54;31.50;96.50
31725;DHT22;18306;40.960;14.836;2023-06-24T09:45:26;31.60;95.50
31725;DHT22;18306;40.960;14.836;2023-06-24T09:47:54;31.70;96.10
31725;DHT22;18306;40.960;14.836;2023-06-24T09:50:21;31.60;96.70
31725;DHT22;18306;40.960;14.836;2023-06-24T09:52:49;31.60;96.20
31725;DHT22;18306;40.960;14.836;2023-06-24T09:55:18;31.80;96.20
31725;DHT22;18306;40.960;14.836;2023-06-24T09:57:47;32.00;96.30
31725;DHT22;18306;40.960;14.836;2023-06-24T10:00:19;31.70;96.70
31725;DHT22;18306;40.960;14.836;2023-06-24T10:02:47;31.70;96.50
31725;DHT22;18306;40.960;14.836;2023-06-24T10:05:14;31.80;96.40
31725;DHT22;18306;40.960;14.836;2023-06-24T10:07:42;31.80;96.90
31725;DHT22;18306;40.960;14.836;2023-06-24T10:10:10;31.90;96.10
31725;DHT22;18306;40.960;14.836;2023-06-24T10:12:38;32.00;96.30
31725;DHT22;18306;40.960;14.836;2023-06-24T10:15:06;32.00;96.70
31725;DHT22;18306;40.960;14.836;2023-06-24T10:17:34;31.90;96.20
31725;DHT22;18306;40.960;14.836;2023-06-24T10:20:05;31.90;96.20
31725;DHT22;18306;40.960;14.836;2023-06-24T10:22:35;31.90;97.20
31725;DHT22;18306;40.960;14.836;2023-06-24T10:25:05;32.00;97.00
31725;DHT22;18306;40.960;14.836;2023-06-24T10:27:39;32.00;96.70
31725;DHT22;18306;40.960;14.836;2023-06-24T10:30:07;31.90;95.80
31725;DHT22;18306;40.960;14.836;2023-06-24T10:32:42;31.90;95.00
31725;DHT22;18306;40.960;14.836;2023-06-24T10:35:29;31.90;95.70
31725;DHT22;18306;40.960;14.836;2023-06-24T10:37:59;32.30;95.60
31725;DHT22;18306;40.960;14.836;2023-06-24T10:40:58;32.40;95.60
31725;DHT22;18306;40.960;14.836;2023-06-24T10:43:27;32.20;94.20
31725;DHT22;18306;40.960;14.836;2023-06-24T10:45:57;32.00;94.10
31725;DHT22;18306;40.960;14.836;2023-06-24T10:48:25;31.80;95.00
31725;DHT22;18306;40.960;14.836;2023-06-24T10:50:53;32.00;95.10
31725;DHT22;18306;40.960;14.836;2023-06-24T10:53:21;32.10;94.60
31725;DHT22;18306;40.960;14.836;2023-06-24T10:55:49;32.30;94.50
31725;DHT22;18306;40.960;14.836;2023-06-24T10:58:16;32.20;94.50
31725;DHT22;18306;40.960;14.836;2023-06-24T11:00:43;31.90;94.30
31725;DHT22;18306;40.960;14.836;2023-06-24T11:03:15;32.00;93.80
31725;DHT22;18306;40.960;14.836;2023-06-24T11:05:44;32.20;94.50
31725;DHT22;18306;40.960;14.836;2023-06-24T11:08:12;32.40;94.10
31725;DHT22;18306;40.960;14.836;2023-06-24T11:10:48;32.60;94.00
31725;DHT22;18306;40.960;14.836;2023-06-24T11:13:15;32.50;93.80
31725;DHT22;18306;40.960;14.836;2023-06-24T11:15:47;32.50;94.30
31725;DHT22;18306;40.960;14.836;2023-06-24T11:18:14;32.60;93.60
31725;DHT22;18306;40.960;14.836;2023-06-24T11:20:41;32.30;94.10
31725;DHT22;18306;40.960;14.836;2023-06-24T11:23:09;31.90;94.80
31725;DHT22;18306;40.960;14.836;2023-06-24T11:25:42;31.90;94.50
31725;DHT22;18306;40.960;14.836;2023-06-24T11:28:14;32.00;94.50
31725;DHT22;18306;40.960;14.836;2023-06-24T11:30:41;32.10;94.00
31725;DHT22;18306;40.960;14.836;2023-06-24T11:33:08;32.40;93.80
31725;DHT22;18306;40.960;14.836;2023-06-24T11:35:35;32.40;94.10
31725;DHT22;18306;40.960;14.836;2023-06-24T11:38:03;32.40;93.90
31725;DHT22;18306;40.960;14.836;2023-06-24T11:40:31;32.60;94.30
31725;DHT22;18306;40.960;14.836;2023-06-24T11:43:00;32.50;94.10
31725;DHT22;18306;40.960;14.836;2023-06-24T11:45:28;32.40;94.60
31725;DHT22;18306;40.960;14.836;2023-06-24T11:48:03;32.40;95.30
31725;DHT22;18306;40.960;14.836;2023-06-24T11:50:35;32.30;94.40
31725;DHT22;18306;40.960;14.836;2023-06-24T11:53:03;32.20;93.80
31725;DHT22;18306;40.960;14.836;2023-06-24T11:55:31;32.30;93.00
31725;DHT22;18306;40.960;14.836;2023-06-24T11:58:03;32.60;94.10
31725;DHT22;18306;40.960;14.836;2023-06-24T12:00:38;32.80;92.70
31725;DHT22;18306;40.960;14.836;2023-06-24T12:03:06;33.10;93.50
31725;DHT22;18306;40.960;14.836;2023-06-24T12:05:35;33.10;92.60
31725;DHT22;18306;40.960;14.836;2023-06-24T12:08:05;32.90;92.80
31725;DHT22;18306;40.960;14.836;2023-06-24T12:10:37;32.60;93.10
31725;DHT22;18306;40.960;14.836;2023-06-24T12:13:06;32.60;93.10
31725;DHT22;18306;40.960;14.836;2023-06-24T12:15:35;32.70;92.80
31725;DHT22;18306;40.960;14.836;2023-06-24T12:18:02;32.80;93.50
31725;DHT22;18306;40.960;14.836;2023-06-24T12:20:30;33.00;94.10
31725;DHT22;18306;40.960;14.836;2023-06-24T12:22:58;33.00;94.00
31725;DHT22;18306;40.960;14.836;2023-06-24T12:25:25;32.90;95.00
31725;DHT22;18306;40.960;14.836;2023-06-24T12:27:52;32.90;94.80
31725;DHT22;18306;40.960;14.836;2023-06-24T12:30:19;32.70;94.60
31725;DHT22;18306;40.960;14.836;2023-06-24T12:32:50;32.60;95.00
31725;DHT22;18306;40.960;14.836;2023-06-24T12:35:17;32.60;95.10
31725;DHT22;18306;40.960;14.836;2023-06-24T12:37:44;32.50;95.70
31725;DHT22;18306;40.960;14.836;2023-06-24T12:40:11;32.50;95.70
31725;DHT22;18306;40.960;14.836;2023-06-24T12:42:39;32.30;95.90
31725;DHT22;18306;40.960;14.836;2023-06-24T12:45:06;32.30;96.30
31725;DHT22;18306;40.960;14.836;2023-06-24T12:47:34;32.20;96.50
31725;DHT22;18306;40.960;14.836;2023-06-24T12:50:01;32.30;96.50
31725;DHT22;18306;40.960;14.836;2023-06-24T12:52:34;32.20;96.20
31725;DHT22;18306;40.960;14.836;2023-06-24T12:55:01;32.10;96.20
31725;DHT22;18306;40.960;14.836;2023-06-24T12:57:38;32.00;96.60
31725;DHT22;18306;40.960;14.836;2023-06-24T13:00:12;32.00;96.80
31725;DHT22;18306;40.960;14.836;2023-06-24T13:03:10;32.20;96.90
31725;DHT22;18306;40.960;14.836;2023-06-24T13:05:52;32.00;97.30
31725;DHT22;18306;40.960;14.836;2023-06-24T13:08:20;31.90;97.80
31725;DHT22;18306;40.960;14.836;2023-06-24T13:10:53;31.80;98.00
31725;DHT22;18306;40.960;14.836;2023-06-24T13:13:20;31.50;98.10
31725;DHT22;18306;40.960;14.836;2023-06-24T13:15:47;31.50;98.10
31725;DHT22;18306;40.960;14.836;2023-06-24T13:18:14;31.40;98.30
31725;DHT22;18306;40.960;14.836;2023-06-24T13:20:42;31.30;98.40
31725;DHT22;18306;40.960;14.836;2023-06-24T13:23:10;31.20;98.80
31725;DHT22;18306;40.960;14.836;2023-06-24T13:25:37;30.90;98.80
31725;DHT22;18306;40.960;14.836;2023-06-24T13:28:04;30.70;99.40
31725;DHT22;18306;40.960;14.836;2023-06-24T13:30:34;30.50;99.70
31725;DHT22;18306;40.960;14.836;2023-06-24T13:33:05;30.70;99.80
31725;DHT22;18306;40.960;14.836;2023-06-24T13:35:32;30.70;99.00
31725;DHT22;18306;40.960;14.836;2023-06-24T13:37:59;30.30;98.90
31725;DHT22;18306;40.960;14.836;2023-06-24T13:40:26;30.10;98.10
31725;DHT22;18306;40.960;14.836;2023-06-24T13:42:53;30.10;98.50
31725;DHT22;18306;40.960;14.836;2023-06-24T13:45:20;29.90;98.00
31725;DHT22;18306;40.960;14.836;2023-06-24T13:47:47;29.70;98.10
31725;DHT22;18306;40.960;14.836;2023-06-24T13:50:14;29.40;97.80
31725;DHT22;18306;40.960;14.836;2023-06-24T13:52:45;29.10;98.30
31725;DHT22;18306;40.960;14.836;2023-06-24T13:55:12;28.90;98.70
31725;DHT22;18306;40.960;14.836;2023-06-24T13:57:44;28.40;98.70
31725;DHT22;18306;40.960;14.836;2023-06-24T14:00:12;28.10;99.90
31725;DHT22;18306;40.960;14.836;2023-06-24T14:02:40;27.90;99.90
31725;DHT22;18306;40.960;14.836;2023-06-24T14:05:07;27.70;99.90
31725;DHT22;18306;40.960;14.836;2023-06-24T14:07:35;27.40;99.90
31725;DHT22;18306;40.960;14.836;2023-06-24T14:10:02;27.30;99.90
31725;DHT22;18306;40.960;14.836;2023-06-24T14:12:29;27.00;99.90
31725;DHT22;18306;40.960;14.836;2023-06-24T14:14:56;26.80;99.90
31725;DHT22;18306;40.960;14.836;2023-06-24T14:17:24;26.50;99.90
31725;DHT22;18306;40.960;14.836;2023-06-24T14:19:51;26.50;99.90
31725;DHT22;18306;40.960;14.836;2023-06-24T14:22:18;26.60;99.90
31725;DHT22;18306;40.960;14.836;2023-06-24T14:24:46;26.80;99.90
31725;DHT22;18306;40.960;14.836;2023-06-24T14:27:17;26.90;99.90
31725;DHT22;18306;40.960;14.836;2023-06-24T14:29:43;27.00;99.90
31725;DHT22;18306;40.960;14.836;2023-06-24T14:32:11;26.90;99.90
31725;DHT22;18306;40.960;14.836;2023-06-24T14:34:42;26.70;99.90
31725;DHT22;18306;40.960;14.836;2023-06-24T14:37:16;26.50;99.90
31725;DHT22;18306;40.960;14.836;2023-06-24T14:39:49;26.20;99.90
31725;DHT22;18306;40.960;14.836;2023-06-24T14:42:30;25.90;99.90
31725;DHT22;18306;40.960;14.836;2023-06-24T14:45:08;25.60;99.90
31725;DHT22;18306;40.960;14.836;2023-06-24T14:47:53;25.60;99.90
31725;DHT22;18306;40.960;14.836;2023-06-24T14:50:32;25.50;99.90
31725;DHT22;18306;40.960;14.836;2023-06-24T14:53:08;25.60;99.90
31725;DHT22;18306;40.960;14.836;2023-06-24T14:55:49;25.80;99.90
31725;DHT22;18306;40.960;14.836;2023-06-24T14:58:28;26.00;99.90
31725;DHT22;18306;40.960;14.836;2023-06-24T15:01:20;26.10;99.90
31725;DHT22;18306;40.960;14.836;2023-06-24T15:03:50;26.20;99.90
31725;DHT22;18306;40.960;14.836;2023-06-24T15:06:34;25.90;99.90
31725;DHT22;18306;40.960;14.836;2023-06-24T15:09:07;25.50;99.90
31725;DHT22;18306;40.960;14.836;2023-06-24T15:11:44;25.40;99.90
31725;DHT22;18306;40.960;14.836;2023-06-24T15:14:16;25.50;99.90
31725;DHT22;18306;40.960;14.836;2023-06-24T15:16:44;25.60;99.90
31725;DHT22;18306;40.960;14.836;2023-06-24T15:19:16;25.70;99.90
31725;DHT22;18306;40.960;14.836;2023-06-24T15:21:43;25.70;99.90
31725;DHT22;18306;40.960;14.836;2023-06-24T15:24:10;25.50;99.90
31725;DHT22;18306;40.960;14.836;2023-06-24T15:26:37;25.30;99.90
31725;DHT22;18306;40.960;14.836;2023-06-24T15:29:04;25.00;99.90
31725;DHT22;18306;40.960;14.836;2023-06-24T15:31:31;24.60;99.90
31725;DHT22;18306;40.960;14.836;2023-06-24T15:33:58;24.30;99.90
31725;DHT22;18306;40.960;14.836;2023-06-24T15:36:25;24.20;99.90
31725;DHT22;18306;40.960;14.836;2023-06-24T15:38:54;24.30;99.90